Time;durP1;ratioP1;P1;durP2;ratioP2;P2;SDS_P1;SDS_P2;PMS_P1;PMS_P2;Temp;Humidity;BMP_temperature;BMP_pressure;BME280_temperature;BME280_humidity;BME280_pressure;Samples;Min_cycle;Max_cycle;Signal;HPM_P1;HPM_P2
2023/06/14 00:01:59;;;;;;;0.10;0.10;;;;;;;;;;5040105;28;20310;-76
2023/06/14 00:04:26;;;;;;;0.00;0.00;;;;;;;;;;5058330;28;20249;-76
2023/06/14 00:06:52;;;;;;;0.10;0.10;;;;;;;;;;5039461;28;20240;-76
2023/06/14 00:09:19;;;;;;;0.10;0.10;;;;;;;;;;5059035;28;20287;-77
2023/06/14 00:11:45;;;;;;;0.10;0.10;;;;;;;;;;5038527;28;20284;-77
2023/06/14 00:14:11;;;;;;;0.10;0.10;;;;;;;;;;5059717;28;20209;-77
2023/06/14 00:16:38;;;;;;;0.10;0.10;;;;;;;;;;5037411;28;20211;-76
2023/06/14 00:19:06;;;;;;;0.10;0.10;;;;;;;;;;5060318;28;20200;-77
2023/06/14 00:21:32;;;;;;;0.10;0.10;;;;;;;;;;5037020;28;20269;-77
2023/06/14 00:23:59;;;;;;;0.10;0.10;;;;;;;;;;5061108;28;20260;-77
2023/06/14 00:26:26;;;;;;;0.10;0.10;;;;;;;;;;5046055;28;20205;-76
2023/06/14 00:28:52;;;;;;;0.10;0.10;;;;;;;;;;5034665;28;20209;-77
2023/06/14 00:31:19;;;;;;;0.28;0.28;;;;;;;;;;5045888;28;20204;-77
2023/06/14 00:33:45;;;;;;;0.10;0.10;;;;;;;;;;5051772;28;20299;-77
2023/06/14 00:36:13;;;;;;;0.10;0.10;;;;;;;;;;5046293;28;20205;-77
2023/06/14 00:38:39;;;;;;;0.10;0.10;;;;;;;;;;5051591;28;20246;-76
2023/06/14 00:41:06;;;;;;;0.10;0.10;;;;;;;;;;5046162;28;20206;-76
2023/06/14 00:43:34;;;;;;;0.10;0.10;;;;;;;;;;5051211;28;20568;-76
2023/06/14 00:46:01;;;;;;;0.10;0.10;;;;;;;;;;5045779;28;20205;-77
2023/06/14 00:48:27;;;;;;;0.10;0.10;;;;;;;;;;5051401;28;20468;-76
2023/06/14 00:50:54;;;;;;;0.10;0.10;;;;;;;;;;5045639;28;20277;-77
2023/06/14 00:53:25;;;;;;;0.10;0.10;;;;;;;;;;5050011;28;20251;-76
2023/06/14 00:55:51;;;;;;;0.10;0.10;;;;;;;;;;5046149;28;20203;-77
2023/06/14 00:58:17;;;;;;;0.10;0.10;;;;;;;;;;5049930;28;20310;-77
2023/06/14 01:00:44;;;;;;;0.10;0.10;;;;;;;;;;5046733;28;20228;-77
2023/06/14 01:03:13;;;;;;;0.10;0.10;;;;;;;;;;5048910;28;20347;-77
2023/06/14 01:05:40;;;;;;;0.10;0.10;;;;;;;;;;5047305;28;20234;-76
2023/06/14 01:08:13;;;;;;;0.10;0.10;;;;;;;;;;5048250;28;20303;-77
2023/06/14 01:10:46;;;;;;;0.00;0.00;;;;;;;;;;5047319;28;20231;-77
2023/06/14 01:13:16;;;;;;;0.10;0.10;;;;;;;;;;5050957;28;20601;-77
2023/06/14 01:15:43;;;;;;;0.10;0.10;;;;;;;;;;5039789;28;20259;-76
2023/06/14 01:18:17;;;;;;;0.10;0.10;;;;;;;;;;5056110;28;20269;-76
2023/06/14 01:20:44;;;;;;;3.60;3.40;;;;;;;;;;5040042;28;20236;-77
2023/06/14 01:23:12;;;;;;;0.10;0.10;;;;;;;;;;5055711;28;20216;-77
2023/06/14 01:25:40;;;;;;;0.10;0.10;;;;;;;;;;5038849;28;20240;-76
2023/06/14 01:28:10;;;;;;;0.10;0.10;;;;;;;;;;5056295;28;20227;-76
2023/06/14 01:30:37;;;;;;;0.10;0.10;;;;;;;;;;5038562;28;20248;-75
2023/06/14 01:33:04;;;;;;;0.68;0.68;;;;;;;;;;5056628;28;20222;-77
2023/06/14 01:35:31;;;;;;;0.10;0.10;;;;;;;;;;5038103;28;20440;-77
2023/06/14 01:37:58;;;;;;;0.10;0.10;;;;;;;;;;5057265;28;20433;-76
2023/06/14 01:40:26;;;;;;;0.00;0.00;;;;;;;;;;5037227;28;20281;-76
2023/06/14 01:42:53;;;;;;;0.10;0.10;;;;;;;;;;5057568;28;20216;-76
2023/06/14 01:45:20;;;;;;;0.10;0.10;;;;;;;;;;5036438;28;20234;-76
2023/06/14 01:47:46;;;;;;;0.10;0.10;;;;;;;;;;5058414;28;20275;-77
2023/06/14 01:50:13;;;;;;;0.10;0.10;;;;;;;;;;5035166;28;20238;-77
2023/06/14 01:52:40;;;;;;;0.10;0.10;;;;;;;;;;5059139;28;20276;-77
2023/06/14 01:55:07;;;;;;;0.03;0.03;;;;;;;;;;5044368;28;20229;-77
2023/06/14 01:57:35;;;;;;;0.10;0.10;;;;;;;;;;5033012;28;20218;-77
2023/06/14 02:00:03;;;;;;;0.10;0.10;;;;;;;;;;5044227;28;20237;-77
2023/06/14 02:02:29;;;;;;;0.20;0.20;;;;;;;;;;5049853;28;20300;-77
2023/06/14 02:04:57;;;;;;;0.10;0.10;;;;;;;;;;5043398;28;20263;-77
2023/06/14 02:07:23;;;;;;;0.10;0.10;;;;;;;;;;5049758;28;20550;-77
2023/06/14 02:09:49;;;;;;;0.10;0.10;;;;;;;;;;5044136;28;20208;-77
2023/06/14 02:12:16;;;;;;;0.30;0.30;;;;;;;;;;5049633;28;20302;-77
2023/06/14 02:14:44;;;;;;;0.03;0.03;;;;;;;;;;5044317;28;20274;-77
2023/06/14 02:17:11;;;;;;;0.10;0.10;;;;;;;;;;5049679;28;20246;-77
2023/06/14 02:19:38;;;;;;;0.10;0.10;;;;;;;;;;5044209;28;20208;-77
2023/06/14 02:22:04;;;;;;;0.10;0.10;;;;;;;;;;5049093;28;20302;-77
2023/06/14 02:24:31;;;;;;;0.00;0.00;;;;;;;;;;5044363;28;20465;-77
2023/06/14 02:26:57;;;;;;;0.10;0.10;;;;;;;;;;5048195;28;20597;-77
2023/06/14 02:29:24;;;;;;;0.10;0.10;;;;;;;;;;5044979;28;20279;-77
2023/06/14 02:31:51;;;;;;;0.10;0.10;;;;;;;;;;5047036;28;20323;-77
2023/06/14 02:34:19;;;;;;;0.00;0.00;;;;;;;;;;5045916;28;20283;-77
2023/06/14 02:36:47;;;;;;;0.10;0.10;;;;;;;;;;5046199;28;20246;-77
2023/06/14 02:39:14;;;;;;;0.10;0.10;;;;;;;;;;5046097;28;20207;-77
2023/06/14 02:41:40;;;;;;;0.10;0.10;;;;;;;;;;5045592;28;20243;-77
2023/06/14 02:44:07;;;;;;;0.10;0.10;;;;;;;;;;5046843;28;20247;-77
2023/06/14 02:46:33;;;;;;;0.10;0.10;;;;;;;;;;5044890;28;20566;-77
2023/06/14 02:49:02;;;;;;;0.10;0.10;;;;;;;;;;5047968;28;20248;-77
2023/06/14 02:51:28;;;;;;;0.10;0.10;;;;;;;;;;5043965;28;20240;-77
2023/06/14 02:53:54;;;;;;;0.10;0.10;;;;;;;;;;5048686;28;20260;-77
2023/06/14 02:56:22;;;;;;;0.10;0.10;;;;;;;;;;5042911;28;20254;-77
2023/06/14 02:58:49;;;;;;;0.10;0.10;;;;;;;;;;5049313;28;20260;-77
2023/06/14 03:01:16;;;;;;;0.10;0.10;;;;;;;;;;5042351;28;20235;-77
2023/06/14 03:03:42;;;;;;;0.10;0.10;;;;;;;;;;5050205;28;20210;-77
2023/06/14 03:06:12;;;;;;;0.20;0.20;;;;;;;;;;5041379;28;20262;-77
2023/06/14 03:08:41;;;;;;;0.10;0.10;;;;;;;;;;5050591;28;20380;-77
2023/06/14 03:11:08;;;;;;;0.00;0.00;;;;;;;;;;5041093;28;20276;-77
2023/06/14 03:13:34;;;;;;;0.10;0.10;;;;;;;;;;5050878;28;20452;-78
2023/06/14 03:16:02;;;;;;;0.83;0.83;;;;;;;;;;5040801;28;20304;-77
2023/06/14 03:18:29;;;;;;;0.10;0.10;;;;;;;;;;5055799;28;20492;-77
2023/06/14 03:20:56;;;;;;;0.10;0.10;;;;;;;;;;5043587;28;20249;-77
2023/06/14 03:23:25;;;;;;;0.10;0.10;;;;;;;;;;5056580;28;20207;-77
2023/06/14 03:25:51;;;;;;;0.10;0.10;;;;;;;;;;5042944;28;20261;-77
2023/06/14 03:28:17;;;;;;;0.10;0.10;;;;;;;;;;5057243;28;20213;-77
2023/06/14 03:30:44;;;;;;;0.10;0.10;;;;;;;;;;5041760;28;20257;-77
2023/06/14 03:33:10;;;;;;;0.10;0.10;;;;;;;;;;5058078;28;20511;-77
2023/06/14 03:35:37;;;;;;;0.10;0.10;;;;;;;;;;5041027;28;20505;-77
2023/06/14 03:38:03;;;;;;;0.13;0.13;;;;;;;;;;5058670;28;20274;-77
2023/06/14 03:40:31;;;;;;;0.10;0.10;;;;;;;;;;5039784;28;20254;-77
2023/06/14 03:42:57;;;;;;;0.10;0.10;;;;;;;;;;5059098;28;20225;-77
2023/06/14 03:45:24;;;;;;;0.10;0.10;;;;;;;;;;5038861;28;20261;-76
2023/06/14 03:47:51;;;;;;;0.10;0.10;;;;;;;;;;5060360;28;20429;-77
2023/06/14 03:50:18;;;;;;;0.10;0.10;;;;;;;;;;5038285;28;20233;-77
2023/06/14 03:52:44;;;;;;;0.10;0.10;;;;;;;;;;5060886;28;20282;-77
2023/06/14 03:55:13;;;;;;;0.10;0.10;;;;;;;;;;5037375;28;20472;-77
2023/06/14 03:57:40;;;;;;;0.10;0.10;;;;;;;;;;5061571;28;20207;-77
2023/06/14 04:00:07;;;;;;;0.10;0.10;;;;;;;;;;5046464;28;20257;-77
2023/06/14 04:02:34;;;;;;;0.10;0.10;;;;;;;;;;5051641;28;20439;-77
2023/06/14 04:05:02;;;;;;;0.10;0.10;;;;;;;;;;5046647;28;20230;-77
2023/06/14 04:07:28;;;;;;;0.10;0.10;;;;;;;;;;5051848;28;20301;-77
2023/06/14 04:09:55;;;;;;;0.10;0.10;;;;;;;;;;5046705;28;20403;-77
2023/06/14 04:12:21;;;;;;;0.10;0.10;;;;;;;;;;5051912;28;20236;-77
2023/06/14 04:14:49;;;;;;;0.10;0.10;;;;;;;;;;5046289;28;20283;-77
2023/06/14 04:17:15;;;;;;;0.10;0.10;;;;;;;;;;5051899;28;20244;-76
2023/06/14 04:19:42;;;;;;;0.10;0.10;;;;;;;;;;5046225;28;20278;-77
2023/06/14 04:22:10;;;;;;;0.10;0.10;;;;;;;;;;5051753;28;20616;-77
2023/06/14 04:24:36;;;;;;;0.37;0.37;;;;;;;;;;5046379;28;20208;-77
2023/06/14 04:27:03;;;;;;;0.10;0.10;;;;;;;;;;5051002;28;20256;-78
2023/06/14 04:29:31;;;;;;;0.10;0.10;;;;;;;;;;5045720;28;20276;-77
2023/06/14 04:32:00;;;;;;;0.00;0.00;;;;;;;;;;5050281;28;20257;-77
2023/06/14 04:34:29;;;;;;;0.10;0.10;;;;;;;;;;5047202;28;20292;-77
2023/06/14 04:36:56;;;;;;;0.10;0.10;;;;;;;;;;5049950;28;20299;-77
2023/06/14 04:39:22;;;;;;;0.10;0.10;;;;;;;;;;5047502;28;20254;-77
2023/06/14 04:41:52;;;;;;;0.10;0.10;;;;;;;;;;5048591;28;20243;-77
2023/06/14 04:44:19;;;;;;;0.10;0.10;;;;;;;;;;5047989;28;20199;-77
2023/06/14 04:46:46;;;;;;;0.10;0.10;;;;;;;;;;5048282;28;20265;-76
2023/06/14 04:49:15;;;;;;;0.10;0.10;;;;;;;;;;5048425;28;20206;-77
2023/06/14 04:51:42;;;;;;;0.10;0.10;;;;;;;;;;5047690;28;20292;-77
2023/06/14 04:54:09;;;;;;;0.10;0.10;;;;;;;;;;5049066;28;20246;-76
2023/06/14 04:56:37;;;;;;;0.10;0.10;;;;;;;;;;5047202;28;20242;-77
2023/06/14 04:59:04;;;;;;;0.10;0.10;;;;;;;;;;5049464;28;20227;-77
2023/06/14 05:01:30;;;;;;;0.20;0.20;;;;;;;;;;5046319;28;20576;-77
2023/06/14 05:03:57;;;;;;;0.10;0.10;;;;;;;;;;5050236;28;20587;-77
2023/06/14 05:06:26;;;;;;;0.10;0.10;;;;;;;;;;5045150;28;20464;-77
2023/06/14 05:08:52;;;;;;;0.10;0.10;;;;;;;;;;5050869;28;20247;-78
2023/06/14 05:11:19;;;;;;;0.00;0.00;;;;;;;;;;5044783;28;20579;-77
2023/06/14 05:13:46;;;;;;;0.10;0.10;;;;;;;;;;5051530;28;20421;-77
2023/06/14 05:16:12;;;;;;;0.10;0.10;;;;;;;;;;5043732;28;20242;-77
2023/06/14 05:18:40;;;;;;;0.20;0.20;;;;;;;;;;5052032;28;20401;-78
2023/06/14 05:21:06;;;;;;;0.30;0.30;;;;;;;;;;5042689;28;20243;-77
2023/06/14 05:23:34;;;;;;;0.00;0.00;;;;;;;;;;5052803;28;20490;-78
2023/06/14 05:26:02;;;;;;;0.10;0.10;;;;;;;;;;5041680;28;20244;-77
2023/06/14 05:28:29;;;;;;;0.10;0.10;;;;;;;;;;5053388;28;20276;-77
2023/06/14 05:30:55;;;;;;;0.10;0.10;;;;;;;;;;5040978;28;20288;-77
2023/06/14 05:33:21;;;;;;;0.10;0.10;;;;;;;;;;5054366;28;20278;-78
2023/06/14 05:35:48;;;;;;;0.10;0.10;;;;;;;;;;5039952;28;20319;-76
2023/06/14 05:41:04;;;;;;;0.10;0.10;;;;;;;;;;5031940;28;20320;-75
2023/06/14 05:43:31;;;;;;;0.10;0.10;;;;;;;;;;5052651;28;20219;-76
2023/06/14 05:45:58;;;;;;;0.10;0.10;;;;;;;;;;5040996;28;20276;-79
2023/06/14 05:48:24;;;;;;;0.10;0.10;;;;;;;;;;5053684;28;20552;-76
2023/06/14 05:50:51;;;;;;;0.10;0.10;;;;;;;;;;5040261;28;20242;-77
2023/06/14 05:53:17;;;;;;;0.20;0.20;;;;;;;;;;5054452;28;20207;-77
2023/06/14 05:55:44;;;;;;;0.10;0.10;;;;;;;;;;5039190;28;20246;-78
2023/06/14 05:58:13;;;;;;;12.93;6.03;;;;;;;;;;5055263;28;20214;-77
2023/06/14 06:00:39;;;;;;;0.20;0.20;;;;;;;;;;5038329;28;20307;-78
2023/06/14 06:03:11;;;;;;;0.07;0.07;;;;;;;;;;5055864;28;20257;-77
2023/06/14 06:05:37;;;;;;;0.10;0.10;;;;;;;;;;5037992;28;20244;-77
2023/06/14 06:08:04;;;;;;;0.10;0.10;;;;;;;;;;5055830;28;20236;-77
2023/06/14 06:10:30;;;;;;;0.10;0.10;;;;;;;;;;5037206;28;20309;-78
2023/06/14 06:12:56;;;;;;;0.05;0.05;;;;;;;;;;5056772;28;20206;-78
2023/06/14 06:15:24;;;;;;;0.10;0.10;;;;;;;;;;5036386;28;20206;-78
2023/06/14 06:17:51;;;;;;;0.10;0.10;;;;;;;;;;5057552;28;20216;-77
2023/06/14 06:20:18;;;;;;;0.40;0.40;;;;;;;;;;5035690;28;20420;-77
2023/06/14 06:22:44;;;;;;;0.10;0.10;;;;;;;;;;5057945;28;20208;-78
2023/06/14 06:25:11;;;;;;;0.10;0.10;;;;;;;;;;5034334;28;20236;-77
2023/06/14 06:27:38;;;;;;;0.10;0.10;;;;;;;;;;5059028;28;20291;-77
2023/06/14 06:30:05;;;;;;;0.52;0.52;;;;;;;;;;5044132;28;20243;-77
2023/06/14 06:32:33;;;;;;;0.10;0.10;;;;;;;;;;5049477;28;20250;-77
2023/06/14 06:35:00;;;;;;;0.10;0.10;;;;;;;;;;5044109;28;20515;-77
2023/06/14 06:37:26;;;;;;;0.10;0.10;;;;;;;;;;5049319;28;20552;-77
2023/06/14 06:39:52;;;;;;;0.00;0.00;;;;;;;;;;5043773;28;20250;-75
2023/06/14 06:42:19;;;;;;;0.00;0.00;;;;;;;;;;5049158;28;20244;-72
2023/06/14 06:44:46;;;;;;;0.10;0.10;;;;;;;;;;5044056;28;20398;-71
2023/06/14 06:47:12;;;;;;;0.10;0.10;;;;;;;;;;5049195;28;20641;-72
2023/06/14 06:49:40;;;;;;;0.05;0.05;;;;;;;;;;5043707;28;20207;-72
2023/06/14 06:52:07;;;;;;;0.10;0.10;;;;;;;;;;5048650;28;20497;-73
2023/06/14 06:54:34;;;;;;;0.03;0.03;;;;;;;;;;5044000;28;20304;-73
2023/06/14 06:57:01;;;;;;;0.10;0.10;;;;;;;;;;5048074;28;20239;-72
2023/06/14 06:59:27;;;;;;;0.10;0.10;;;;;;;;;;5044464;28;20235;-72
2023/06/14 07:01:54;;;;;;;0.10;0.10;;;;;;;;;;5046966;28;20242;-72
2023/06/14 07:04:20;;;;;;;0.10;0.10;;;;;;;;;;5045845;28;20460;-71
2023/06/14 07:06:48;;;;;;;0.10;0.10;;;;;;;;;;5046347;28;20274;-72
2023/06/14 07:09:15;;;;;;;0.10;0.10;;;;;;;;;;5046061;28;20212;-72
2023/06/14 07:11:42;;;;;;;0.10;0.10;;;;;;;;;;5045586;28;20243;-72
2023/06/14 07:14:09;;;;;;;0.10;0.10;;;;;;;;;;5046636;28;20277;-72
2023/06/14 07:16:35;;;;;;;0.10;0.10;;;;;;;;;;5044597;28;20239;-72
2023/06/14 07:19:02;;;;;;;0.10;0.10;;;;;;;;;;5047619;28;20409;-73
2023/06/14 07:21:28;;;;;;;0.10;0.10;;;;;;;;;;5043032;28;20473;-72
2023/06/14 07:23:56;;;;;;;0.03;0.03;;;;;;;;;;5048632;28;20211;-73
2023/06/14 07:26:23;;;;;;;0.10;0.10;;;;;;;;;;5042991;28;20639;-72
2023/06/14 07:28:49;;;;;;;0.10;0.10;;;;;;;;;;5049294;28;20275;-72
2023/06/14 07:31:16;;;;;;;0.10;0.10;;;;;;;;;;5041933;28;20607;-72
2023/06/14 07:33:43;;;;;;;0.10;0.10;;;;;;;;;;5049898;28;20205;-74
2023/06/14 07:36:09;;;;;;;0.10;0.10;;;;;;;;;;5041215;28;20483;-74
2023/06/14 07:38:36;;;;;;;0.10;0.10;;;;;;;;;;5051018;28;20234;-74
2023/06/14 07:41:04;;;;;;;0.05;0.05;;;;;;;;;;5040337;28;20245;-74
2023/06/14 07:43:30;;;;;;;0.00;0.00;;;;;;;;;;5051401;28;20513;-74
2023/06/14 07:45:57;;;;;;;0.10;0.10;;;;;;;;;;5039473;28;20499;-75
2023/06/14 07:48:23;;;;;;;0.10;0.10;;;;;;;;;;5052460;28;20436;-75
2023/06/14 07:50:50;;;;;;;0.00;0.00;;;;;;;;;;5038668;28;20253;-74
2023/06/14 07:53:16;;;;;;;0.10;0.10;;;;;;;;;;5052988;28;20206;-75
2023/06/14 07:55:43;;;;;;;0.10;0.10;;;;;;;;;;5037761;28;20242;-75
2023/06/14 07:58:11;;;;;;;0.10;0.10;;;;;;;;;;5054075;28;20207;-74
2023/06/14 08:00:37;;;;;;;0.65;0.65;;;;;;;;;;5036664;28;20266;-75
2023/06/14 08:03:04;;;;;;;0.10;0.10;;;;;;;;;;5055749;28;20238;-75
2023/06/14 08:05:30;;;;;;;0.00;0.00;;;;;;;;;;5039423;28;20585;-75
2023/06/14 08:07:56;;;;;;;0.10;0.10;;;;;;;;;;5059005;28;20236;-75
2023/06/14 08:10:23;;;;;;;0.10;0.10;;;;;;;;;;5038493;28;20212;-75
2023/06/14 08:12:50;;;;;;;0.10;0.10;;;;;;;;;;5060145;28;20543;-75
2023/06/14 08:15:18;;;;;;;0.10;0.10;;;;;;;;;;5037835;28;20206;-74
2023/06/14 08:17:44;;;;;;;0.10;0.10;;;;;;;;;;5060703;28;20238;-71
2023/06/14 08:20:11;;;;;;;0.32;0.32;;;;;;;;;;5036581;28;20210;-72
2023/06/14 08:22:39;;;;;;;0.10;0.10;;;;;;;;;;5061382;28;20198;-71
2023/06/14 08:25:06;;;;;;;0.08;0.08;;;;;;;;;;5046174;28;20231;-72
2023/06/14 08:27:33;;;;;;;0.00;0.00;;;;;;;;;;5034954;28;20233;-70
2023/06/14 08:29:59;;;;;;;0.08;0.08;;;;;;;;;;5046150;28;20212;-70
2023/06/14 08:32:27;;;;;;;0.10;0.10;;;;;;;;;;5051866;28;20241;-71
2023/06/14 08:34:53;;;;;;;8.48;3.03;;;;;;;;;;5046042;28;20212;-71
2023/06/14 08:37:20;;;;;;;0.10;0.10;;;;;;;;;;5051591;28;20303;-70
2023/06/14 08:39:46;;;;;;;0.45;0.45;;;;;;;;;;5045908;28;20207;-70
2023/06/14 08:42:13;;;;;;;0.00;0.00;;;;;;;;;;5051377;28;20301;-71
2023/06/14 08:44:39;;;;;;;0.10;0.10;;;;;;;;;;5046201;28;20241;-71
2023/06/14 08:47:06;;;;;;;0.10;0.10;;;;;;;;;;5051003;28;20239;-70
2023/06/14 08:49:35;;;;;;;0.10;0.10;;;;;;;;;;5045880;28;20207;-70
2023/06/14 08:52:01;;;;;;;0.00;0.00;;;;;;;;;;5050300;28;20308;-70
2023/06/14 08:54:30;;;;;;;0.00;0.00;;;;;;;;;;5046751;28;20246;-70
2023/06/14 08:56:57;;;;;;;0.05;0.05;;;;;;;;;;5049620;28;20242;-70
2023/06/14 08:59:24;;;;;;;0.10;0.10;;;;;;;;;;5047176;28;20227;-70
2023/06/14 09:01:52;;;;;;;0.00;0.00;;;;;;;;;;5048824;28;20353;-71
2023/06/14 09:04:19;;;;;;;0.00;0.00;;;;;;;;;;5047545;28;20207;-70
2023/06/14 09:06:52;;;;;;;0.00;0.00;;;;;;;;;;5047840;28;20235;-70
2023/06/14 09:09:18;;;;;;;0.10;0.10;;;;;;;;;;5048014;28;20222;-70
2023/06/14 09:11:45;;;;;;;0.00;0.00;;;;;;;;;;5047789;28;20272;-71
2023/06/14 09:14:11;;;;;;;0.10;0.10;;;;;;;;;;5048268;28;20242;-70
2023/06/14 09:16:38;;;;;;;0.00;0.00;;;;;;;;;;5046827;28;20239;-71
2023/06/14 09:19:04;;;;;;;0.10;0.10;;;;;;;;;;5049076;28;20279;-70
2023/06/14 09:21:34;;;;;;;0.00;0.00;;;;;;;;;;5046009;28;20498;-71
2023/06/14 09:24:02;;;;;;;0.10;0.10;;;;;;;;;;5049547;28;20279;-70
2023/06/14 09:26:29;;;;;;;0.00;0.00;;;;;;;;;;5045627;28;20246;-70
2023/06/14 09:28:55;;;;;;;0.00;0.00;;;;;;;;;;5050076;28;20527;-71
2023/06/14 09:31:22;;;;;;;0.10;0.10;;;;;;;;;;5044427;28;20273;-70
2023/06/14 09:33:49;;;;;;;0.08;0.08;;;;;;;;;;5051237;28;20214;-70
2023/06/14 09:36:16;;;;;;;0.00;0.00;;;;;;;;;;5043779;28;20456;-71
2023/06/14 09:38:43;;;;;;;0.00;0.00;;;;;;;;;;5051547;28;20221;-70
2023/06/14 09:41:10;;;;;;;0.00;0.00;;;;;;;;;;5042927;28;20488;-70
2023/06/14 09:43:37;;;;;;;0.10;0.10;;;;;;;;;;5052057;28;20220;-69
2023/06/14 09:46:04;;;;;;;0.10;0.10;;;;;;;;;;5042105;28;20310;-69
2023/06/14 09:48:30;;;;;;;0.10;0.10;;;;;;;;;;5052583;28;20224;-69
2023/06/14 09:50:59;;;;;;;0.10;0.10;;;;;;;;;;5040979;28;20241;-69
2023/06/14 09:53:25;;;;;;;0.00;0.00;;;;;;;;;;5053436;28;20239;-69
2023/06/14 09:55:53;;;;;;;0.00;0.00;;;;;;;;;;5040237;28;20289;-69
2023/06/14 09:58:21;;;;;;;0.00;0.00;;;;;;;;;;5054189;28;20231;-70
2023/06/14 10:00:50;;;;;;;0.30;0.30;;;;;;;;;;5039426;28;20242;-71
2023/06/14 10:03:20;;;;;;;0.00;0.00;;;;;;;;;;5054655;28;20208;-71
2023/06/14 10:05:48;;;;;;;0.08;0.08;;;;;;;;;;5039793;28;20302;-69
2023/06/14 10:08:16;;;;;;;0.10;0.10;;;;;;;;;;5054489;28;20424;-69
2023/06/14 10:10:43;;;;;;;0.00;0.00;;;;;;;;;;5038680;28;20462;-68
2023/06/14 10:13:10;;;;;;;0.10;0.10;;;;;;;;;;5055446;28;20205;-69
2023/06/14 10:15:40;;;;;;;0.00;0.00;;;;;;;;;;5038136;28;20503;-69
2023/06/14 10:18:08;;;;;;;0.00;0.00;;;;;;;;;;5055619;28;20232;-70
2023/06/14 10:20:39;;;;;;;0.10;0.10;;;;;;;;;;5037522;28;20239;-70
2023/06/14 10:23:15;;;;;;;0.10;0.10;;;;;;;;;;5055492;28;20371;-69
2023/06/14 10:25:43;;;;;;;0.00;0.00;;;;;;;;;;5038011;28;20500;-70
2023/06/14 10:28:16;;;;;;;0.00;0.00;;;;;;;;;;5054779;28;20238;-69
2023/06/14 10:30:57;;;;;;;0.00;0.00;;;;;;;;;;5038444;28;20500;-70
2023/06/14 10:33:25;;;;;;;0.00;0.00;;;;;;;;;;5052897;28;20232;-69
2023/06/14 10:36:07;;;;;;;0.55;0.55;;;;;;;;;;5039443;28;20266;-69
2023/06/14 10:38:35;;;;;;;0.88;0.85;;;;;;;;;;5051686;28;20200;-69
2023/06/14 10:41:01;;;;;;;0.05;0.05;;;;;;;;;;5040684;28;20273;-69
2023/06/14 10:43:28;;;;;;;0.10;0.10;;;;;;;;;;5052106;28;20248;-71
2023/06/14 10:46:17;;;;;;;0.00;0.00;;;;;;;;;;5040025;28;20243;-69
2023/06/14 10:48:45;;;;;;;0.00;0.00;;;;;;;;;;5050278;28;20278;-70
2023/06/14 10:51:20;;;;;;;0.00;0.00;;;;;;;;;;5041735;28;20267;-68
2023/06/14 10:53:47;;;;;;;0.00;0.00;;;;;;;;;;5049970;28;20283;-70
2023/06/14 10:56:25;;;;;;;0.00;0.00;;;;;;;;;;5042149;28;20304;-69
2023/06/14 10:58:51;;;;;;;0.00;0.00;;;;;;;;;;5049133;28;20224;-72
2023/06/14 11:01:21;;;;;;;0.00;0.00;;;;;;;;;;5042760;28;20286;-71
2023/06/14 11:03:53;;;;;;;0.08;0.08;;;;;;;;;;5049466;28;20208;-70
2023/06/14 11:06:23;;;;;;;0.00;0.00;;;;;;;;;;5042900;28;20242;-71
2023/06/14 11:09:07;;;;;;;0.03;0.03;;;;;;;;;;5049313;28;20251;-70
2023/06/14 11:11:34;;;;;;;0.00;0.00;;;;;;;;;;5044520;28;20273;-70
2023/06/14 11:14:01;;;;;;;0.00;0.00;;;;;;;;;;5047727;28;20501;-70
2023/06/14 11:16:28;;;;;;;0.10;0.10;;;;;;;;;;5043647;28;20314;-70
2023/06/14 11:18:56;;;;;;;0.00;0.00;;;;;;;;;;5048254;28;20288;-71
2023/06/14 11:21:25;;;;;;;0.03;0.03;;;;;;;;;;5042883;28;20235;-70
2023/06/14 11:23:52;;;;;;;0.00;0.00;;;;;;;;;;5049172;28;20226;-69
2023/06/14 11:26:26;;;;;;;0.00;0.00;;;;;;;;;;5042543;28;20240;-70
2023/06/14 11:28:55;;;;;;;0.00;0.00;;;;;;;;;;5048765;28;20227;-70
2023/06/14 11:31:22;;;;;;;0.00;0.00;;;;;;;;;;5042948;28;20302;-70
2023/06/14 11:33:50;;;;;;;0.00;0.00;;;;;;;;;;5049315;28;20236;-70
2023/06/14 11:36:18;;;;;;;0.00;0.00;;;;;;;;;;5042211;28;20255;-70
2023/06/14 11:38:44;;;;;;;0.00;0.00;;;;;;;;;;5052958;28;20239;-69
2023/06/14 11:41:11;;;;;;;0.10;0.10;;;;;;;;;;5045272;28;20240;-70
2023/06/14 11:43:37;;;;;;;0.00;0.00;;;;;;;;;;5054162;28;20244;-69
2023/06/14 11:46:04;;;;;;;0.00;0.00;;;;;;;;;;5044113;28;20319;-70
2023/06/14 11:48:37;;;;;;;0.00;0.00;;;;;;;;;;5055235;28;20232;-70
2023/06/14 11:51:03;;;;;;;0.00;0.00;;;;;;;;;;5043969;28;20302;-70
2023/06/14 11:53:31;;;;;;;0.00;0.00;;;;;;;;;;5055301;28;20272;-70
2023/06/14 11:55:58;;;;;;;0.00;0.00;;;;;;;;;;5043373;28;20645;-70
2023/06/14 11:58:26;;;;;;;0.00;0.00;;;;;;;;;;5056198;28;20493;-71
2023/06/14 12:00:53;;;;;;;0.10;0.10;;;;;;;;;;5042378;28;20323;-73
2023/06/14 12:03:23;;;;;;;0.00;0.00;;;;;;;;;;5056911;28;20236;-73
2023/06/14 12:05:49;;;;;;;0.00;0.00;;;;;;;;;;5041981;28;20240;-73
2023/06/14 12:08:18;;;;;;;0.00;0.00;;;;;;;;;;5056832;28;20240;-73
2023/06/14 12:10:47;;;;;;;0.10;0.10;;;;;;;;;;5041292;28;20342;-73
2023/06/14 12:13:13;;;;;;;0.00;0.00;;;;;;;;;;5057041;28;20208;-73
2023/06/14 12:15:40;;;;;;;0.00;0.00;;;;;;;;;;5040804;28;20293;-72
2023/06/14 12:18:08;;;;;;;0.00;0.00;;;;;;;;;;5057760;28;20201;-73
2023/06/14 12:20:36;;;;;;;0.00;0.00;;;;;;;;;;5039677;28;20232;-73
2023/06/14 12:23:03;;;;;;;0.10;0.10;;;;;;;;;;5058172;28;20205;-72
2023/06/14 12:25:32;;;;;;;0.00;0.00;;;;;;;;;;5039316;28;20641;-72
2023/06/14 12:28:00;;;;;;;0.08;0.08;;;;;;;;;;5058515;28;20275;-72
2023/06/14 12:30:27;;;;;;;0.00;0.00;;;;;;;;;;5038509;28;20205;-72
2023/06/14 12:32:53;;;;;;;0.00;0.00;;;;;;;;;;5059271;28;20232;-72
2023/06/14 12:35:20;;;;;;;0.10;0.10;;;;;;;;;;5037579;28;20249;-73
2023/06/14 12:37:46;;;;;;;0.00;0.00;;;;;;;;;;5060106;28;20527;-73
2023/06/14 12:40:13;;;;;;;0.10;0.10;;;;;;;;;;5036891;28;20213;-73
2023/06/14 12:42:39;;;;;;;0.00;0.00;;;;;;;;;;5060496;28;20227;-73
2023/06/14 12:45:07;;;;;;;0.00;0.00;;;;;;;;;;5045892;28;20212;-73
2023/06/14 12:47:34;;;;;;;0.00;0.00;;;;;;;;;;5051205;28;20236;-72
2023/06/14 12:50:00;;;;;;;0.00;0.00;;;;;;;;;;5045101;28;20205;-73
2023/06/14 12:52:27;;;;;;;0.00;0.00;;;;;;;;;;5051445;28;20240;-72
2023/06/14 12:54:54;;;;;;;0.10;0.10;;;;;;;;;;5045981;28;20275;-72
2023/06/14 12:57:20;;;;;;;0.00;0.00;;;;;;;;;;5051204;28;20246;-72
2023/06/14 12:59:46;;;;;;;0.00;0.00;;;;;;;;;;5045508;28;20228;-71
2023/06/14 13:02:15;;;;;;;0.00;0.00;;;;;;;;;;5051059;28;20259;-73
2023/06/14 13:04:42;;;;;;;0.10;0.10;;;;;;;;;;5045870;28;20205;-73
2023/06/14 13:07:08;;;;;;;0.00;0.00;;;;;;;;;;5050950;28;20311;-73
2023/06/14 13:09:35;;;;;;;0.00;0.00;;;;;;;;;;5045399;28;20232;-73
2023/06/14 13:12:01;;;;;;;0.00;0.00;;;;;;;;;;5050007;28;20311;-73
2023/06/14 13:14:27;;;;;;;0.00;0.00;;;;;;;;;;5046353;28;20459;-73
2023/06/14 13:16:54;;;;;;;0.05;0.05;;;;;;;;;;5048998;28;20354;-73
2023/06/14 13:19:22;;;;;;;0.00;0.00;;;;;;;;;;5047153;28;20201;-73
2023/06/14 13:21:48;;;;;;;0.10;0.10;;;;;;;;;;5048132;28;20354;-74
2023/06/14 13:24:15;;;;;;;0.00;0.00;;;;;;;;;;5047804;28;20237;-72
2023/06/14 13:26:43;;;;;;;0.10;0.10;;;;;;;;;;5047055;28;20240;-74
2023/06/14 13:29:10;;;;;;;0.10;0.10;;;;;;;;;;5048357;28;20314;-73
2023/06/14 13:31:36;;;;;;;0.00;0.00;;;;;;;;;;5046346;28;20244;-73
2023/06/14 13:34:02;;;;;;;0.00;0.00;;;;;;;;;;5049205;28;20456;-74
2023/06/14 13:36:30;;;;;;;0.80;0.80;;;;;;;;;;5045495;28;20239;-73
2023/06/14 13:38:58;;;;;;;0.00;0.00;;;;;;;;;;5049870;28;20212;-74
2023/06/14 13:41:29;;;;;;;0.00;0.00;;;;;;;;;;5044797;28;20240;-73
2023/06/14 13:43:56;;;;;;;0.00;0.00;;;;;;;;;;5049547;28;20247;-74
2023/06/14 13:46:22;;;;;;;0.05;0.05;;;;;;;;;;5044379;28;20274;-74
2023/06/14 13:48:48;;;;;;;0.10;0.10;;;;;;;;;;5050505;28;20429;-74
2023/06/14 13:51:15;;;;;;;0.10;0.10;;;;;;;;;;5043462;28;20476;-74
2023/06/14 13:53:43;;;;;;;0.10;0.10;;;;;;;;;;5051172;28;20212;-74
2023/06/14 13:56:10;;;;;;;0.03;0.03;;;;;;;;;;5042732;28;20289;-74
2023/06/14 13:58:36;;;;;;;0.00;0.00;;;;;;;;;;5052038;28;20228;-74
2023/06/14 14:01:03;;;;;;;0.00;0.00;;;;;;;;;;5040536;28;20239;-74
2023/06/14 14:03:29;;;;;;;0.20;0.20;;;;;;;;;;5052945;28;20283;-74
2023/06/14 14:05:55;;;;;;;0.10;0.10;;;;;;;;;;5040719;28;20435;-74
2023/06/14 14:08:22;;;;;;;0.00;0.00;;;;;;;;;;5053770;28;20450;-74
2023/06/14 14:10:49;;;;;;;0.00;0.00;;;;;;;;;;5039715;28;20303;-75
2023/06/14 14:13:16;;;;;;;0.00;0.00;;;;;;;;;;5054411;28;20240;-74
2023/06/14 14:15:42;;;;;;;0.80;0.80;;;;;;;;;;5038533;28;20303;-74
2023/06/14 14:18:09;;;;;;;0.00;0.00;;;;;;;;;;5055040;28;20243;-74
2023/06/14 14:20:35;;;;;;;0.00;0.00;;;;;;;;;;5037919;28;20567;-74
2023/06/14 14:23:02;;;;;;;0.10;0.10;;;;;;;;;;5056034;28;20278;-74
2023/06/14 14:25:28;;;;;;;0.00;0.00;;;;;;;;;;5037021;28;20240;-74
2023/06/14 14:27:56;;;;;;;0.10;0.10;;;;;;;;;;5056738;28;20219;-74
2023/06/14 14:30:23;;;;;;;0.10;0.10;;;;;;;;;;5036106;28;20233;-75
2023/06/14 14:32:50;;;;;;;0.08;0.08;;;;;;;;;;5057209;28;20219;-74
2023/06/14 14:35:17;;;;;;;0.10;0.10;;;;;;;;;;5035201;28;20395;-74
2023/06/14 14:37:43;;;;;;;0.00;0.00;;;;;;;;;;5057946;28;20422;-74
2023/06/14 14:40:10;;;;;;;0.00;0.00;;;;;;;;;;5034056;28;20228;-75
2023/06/14 14:42:36;;;;;;;2.55;2.38;;;;;;;;;;5058746;28;20256;-74
2023/06/14 14:45:05;;;;;;;0.10;0.10;;;;;;;;;;5043970;28;20209;-74
2023/06/14 14:47:31;;;;;;;0.03;0.03;;;;;;;;;;5049214;28;20606;-74